sensor_id;sensor_type;location;lat;lon;timestamp;P1;durP1;ratioP1;P2;durP2;ratioP2
54813;SDS011;40714;51.378;-2.348;2023-09-19T00:02:02;2.85;;;1.27;;
54813;SDS011;40714;51.378;-2.348;2023-09-19T00:04:32;2.22;;;0.93;;
54813;SDS011;40714;51.378;-2.348;2023-09-19T00:06:58;4.50;;;0.90;;
54813;SDS011;40714;51.378;-2.348;2023-09-19T00:09:27;4.30;;;1.20;;
54813;SDS011;40714;51.378;-2.348;2023-09-19T00:11:53;4.05;;;1.02;;
54813;SDS011;40714;51.378;-2.348;2023-09-19T00:14:19;6.85;;;0.90;;
54813;SDS011;40714;51.378;-2.348;2023-09-19T00:16:49;4.05;;;0.90;;
54813;SDS011;40714;51.378;-2.348;2023-09-19T00:19:15;3.75;;;0.65;;
54813;SDS011;40714;51.378;-2.348;2023-09-19T00:21:41;4.50;;;0.90;;
54813;SDS011;40714;51.378;-2.348;2023-09-19T00:24:08;3.10;;;0.68;;
54813;SDS011;40714;51.378;-2.348;2023-09-19T00:26:34;7.00;;;0.95;;
54813;SDS011;40714;51.378;-2.348;2023-09-19T00:29:01;4.65;;;0.70;;
54813;SDS011;40714;51.378;-2.348;2023-09-19T00:31:33;2.58;;;0.73;;
54813;SDS011;40714;51.378;-2.348;2023-09-19T00:33:59;3.03;;;0.60;;
54813;SDS011;40714;51.378;-2.348;2023-09-19T00:36:29;3.45;;;1.38;;
54813;SDS011;40714;51.378;-2.348;2023-09-19T00:38:55;1.83;;;0.68;;
54813;SDS011;40714;51.378;-2.348;2023-09-19T00:41:21;5.30;;;0.88;;
54813;SDS011;40714;51.378;-2.348;2023-09-19T00:43:47;2.30;;;0.60;;
54813;SDS011;40714;51.378;-2.348;2023-09-19T00:46:16;3.30;;;1.33;;
54813;SDS011;40714;51.378;-2.348;2023-09-19T00:48:42;6.00;;;1.08;;
54813;SDS011;40714;51.378;-2.348;2023-09-19T00:51:08;4.32;;;0.82;;
54813;SDS011;40714;51.378;-2.348;2023-09-19T00:53:34;3.30;;;0.77;;
54813;SDS011;40714;51.378;-2.348;2023-09-19T00:56:01;2.78;;;0.63;;
54813;SDS011;40714;51.378;-2.348;2023-09-19T00:58:29;8.18;;;1.25;;
54813;SDS011;40714;51.378;-2.348;2023-09-19T01:00:58;3.22;;;1.23;;
54813;SDS011;40714;51.378;-2.348;2023-09-19T01:03:24;3.70;;;0.93;;
54813;SDS011;40714;51.378;-2.348;2023-09-19T01:05:51;3.05;;;0.50;;
54813;SDS011;40714;51.378;-2.348;2023-09-19T01:08:17;4.13;;;0.60;;
54813;SDS011;40714;51.378;-2.348;2023-09-19T01:10:48;3.00;;;0.60;;
54813;SDS011;40714;51.378;-2.348;2023-09-19T01:21:18;3.28;;;0.90;;
54813;SDS011;40714;51.378;-2.348;2023-09-19T01:24:50;1.98;;;0.45;;
54813;SDS011;40714;51.378;-2.348;2023-09-19T01:31:56;3.33;;;0.70;;
54813;SDS011;40714;51.378;-2.348;2023-09-19T01:34:23;3.25;;;0.57;;
54813;SDS011;40714;51.378;-2.348;2023-09-19T01:36:51;2.42;;;0.63;;
54813;SDS011;40714;51.378;-2.348;2023-09-19T01:39:17;3.20;;;0.82;;
54813;SDS011;40714;51.378;-2.348;2023-09-19T01:42:03;2.35;;;0.65;;
54813;SDS011;40714;51.378;-2.348;2023-09-19T01:44:36;3.65;;;1.20;;
54813;SDS011;40714;51.378;-2.348;2023-09-19T01:47:09;1.83;;;0.65;;
54813;SDS011;40714;51.378;-2.348;2023-09-19T01:49:42;3.35;;;0.73;;
54813;SDS011;40714;51.378;-2.348;2023-09-19T01:52:14;2.45;;;0.70;;
54813;SDS011;40714;51.378;-2.348;2023-09-19T01:54:52;3.88;;;0.90;;
54813;SDS011;40714;51.378;-2.348;2023-09-19T01:57:32;3.60;;;0.90;;
54813;SDS011;40714;51.378;-2.348;2023-09-19T02:00:01;1.52;;;0.38;;
54813;SDS011;40714;51.378;-2.348;2023-09-19T02:02:33;1.40;;;0.60;;
54813;SDS011;40714;51.378;-2.348;2023-09-19T02:05:00;3.22;;;0.82;;
54813;SDS011;40714;51.378;-2.348;2023-09-19T02:07:26;3.50;;;0.50;;
54813;SDS011;40714;51.378;-2.348;2023-09-19T02:09:52;2.92;;;0.82;;
54813;SDS011;40714;51.378;-2.348;2023-09-19T02:12:18;4.45;;;0.55;;
54813;SDS011;40714;51.378;-2.348;2023-09-19T02:14:44;3.92;;;0.70;;
54813;SDS011;40714;51.378;-2.348;2023-09-19T02:17:10;2.65;;;0.40;;
54813;SDS011;40714;51.378;-2.348;2023-09-19T02:19:37;2.25;;;0.50;;
54813;SDS011;40714;51.378;-2.348;2023-09-19T02:22:04;1.88;;;0.60;;
54813;SDS011;40714;51.378;-2.348;2023-09-19T02:24:32;2.53;;;0.47;;
54813;SDS011;40714;51.378;-2.348;2023-09-19T02:26:58;4.20;;;0.88;;
54813;SDS011;40714;51.378;-2.348;2023-09-19T02:29:28;2.22;;;0.98;;
54813;SDS011;40714;51.378;-2.348;2023-09-19T02:31:55;6.18;;;0.95;;
54813;SDS011;40714;51.378;-2.348;2023-09-19T02:34:21;4.88;;;1.15;;
54813;SDS011;40714;51.378;-2.348;2023-09-19T02:36:47;2.05;;;0.70;;
54813;SDS011;40714;51.378;-2.348;2023-09-19T02:39:13;3.47;;;0.80;;
54813;SDS011;40714;51.378;-2.348;2023-09-19T02:41:40;1.42;;;0.65;;
54813;SDS011;40714;51.378;-2.348;2023-09-19T02:44:06;2.75;;;1.17;;
54813;SDS011;40714;51.378;-2.348;2023-09-19T02:46:36;3.17;;;0.68;;
54813;SDS011;40714;51.378;-2.348;2023-09-19T02:49:02;3.10;;;0.98;;
54813;SDS011;40714;51.378;-2.348;2023-09-19T02:51:31;3.75;;;0.47;;
54813;SDS011;40714;51.378;-2.348;2023-09-19T02:54:01;4.20;;;1.38;;
54813;SDS011;40714;51.378;-2.348;2023-09-19T02:56:30;2.25;;;0.57;;
54813;SDS011;40714;51.378;-2.348;2023-09-19T02:58:57;5.80;;;0.93;;
54813;SDS011;40714;51.378;-2.348;2023-09-19T03:01:25;4.38;;;1.23;;
54813;SDS011;40714;51.378;-2.348;2023-09-19T03:03:52;2.45;;;0.30;;
54813;SDS011;40714;51.378;-2.348;2023-09-19T03:06:18;0.82;;;0.30;;
54813;SDS011;40714;51.378;-2.348;2023-09-19T03:08:45;0.77;;;0.40;;
54813;SDS011;40714;51.378;-2.348;2023-09-19T03:11:11;3.05;;;0.40;;
54813;SDS011;40714;51.378;-2.348;2023-09-19T03:13:40;2.03;;;0.70;;
54813;SDS011;40714;51.378;-2.348;2023-09-19T03:16:07;4.40;;;0.35;;
54813;SDS011;40714;51.378;-2.348;2023-09-19T03:18:36;3.25;;;0.82;;
54813;SDS011;40714;51.378;-2.348;2023-09-19T03:21:02;4.60;;;0.88;;
54813;SDS011;40714;51.378;-2.348;2023-09-19T03:23:29;1.13;;;0.63;;
54813;SDS011;40714;51.378;-2.348;2023-09-19T03:25:55;1.83;;;0.70;;
54813;SDS011;40714;51.378;-2.348;2023-09-19T03:28:22;0.63;;;0.40;;
54813;SDS011;40714;51.378;-2.348;2023-09-19T03:33:43;3.85;;;0.30;;
54813;SDS011;40714;51.378;-2.348;2023-09-19T03:36:09;1.83;;;0.40;;
54813;SDS011;40714;51.378;-2.348;2023-09-19T03:38:38;2.10;;;0.40;;
54813;SDS011;40714;51.378;-2.348;2023-09-19T03:41:04;2.97;;;0.50;;
54813;SDS011;40714;51.378;-2.348;2023-09-19T03:43:31;2.45;;;0.73;;
54813;SDS011;40714;51.378;-2.348;2023-09-19T03:46:00;1.50;;;0.32;;
54813;SDS011;40714;51.378;-2.348;2023-09-19T03:48:28;2.15;;;0.63;;
54813;SDS011;40714;51.378;-2.348;2023-09-19T03:50:54;1.95;;;0.50;;
54813;SDS011;40714;51.378;-2.348;2023-09-19T03:53:21;0.43;;;0.25;;
54813;SDS011;40714;51.378;-2.348;2023-09-19T03:55:47;4.97;;;0.60;;
54813;SDS011;40714;51.378;-2.348;2023-09-19T03:58:13;0.50;;;0.50;;
54813;SDS011;40714;51.378;-2.348;2023-09-19T04:00:39;3.15;;;0.80;;
54813;SDS011;40714;51.378;-2.348;2023-09-19T04:03:06;2.08;;;0.47;;
54813;SDS011;40714;51.378;-2.348;2023-09-19T04:05:32;0.65;;;0.43;;
54813;SDS011;40714;51.378;-2.348;2023-09-19T04:07:58;1.30;;;0.50;;
54813;SDS011;40714;51.378;-2.348;2023-09-19T04:10:24;0.90;;;0.60;;
54813;SDS011;40714;51.378;-2.348;2023-09-19T04:12:54;3.63;;;0.57;;
54813;SDS011;40714;51.378;-2.348;2023-09-19T04:15:20;0.28;;;0.20;;
54813;SDS011;40714;51.378;-2.348;2023-09-19T04:17:49;2.67;;;0.60;;
54813;SDS011;40714;51.378;-2.348;2023-09-19T04:20:16;2.88;;;0.70;;
54813;SDS011;40714;51.378;-2.348;2023-09-19T04:22:44;2.63;;;0.50;;
54813;SDS011;40714;51.378;-2.348;2023-09-19T04:25:10;1.15;;;0.22;;
54813;SDS011;40714;51.378;-2.348;2023-09-19T04:27:36;2.00;;;0.43;;
54813;SDS011;40714;51.378;-2.348;2023-09-19T04:30:03;1.50;;;0.30;;
54813;SDS011;40714;51.378;-2.348;2023-09-19T04:32:35;2.90;;;0.47;;
54813;SDS011;40714;51.378;-2.348;2023-09-19T04:35:01;2.05;;;0.52;;
54813;SDS011;40714;51.378;-2.348;2023-09-19T04:37:30;1.65;;;0.30;;
54813;SDS011;40714;51.378;-2.348;2023-09-19T04:39:56;2.15;;;0.55;;
54813;SDS011;40714;51.378;-2.348;2023-09-19T04:42:22;1.38;;;0.15;;
54813;SDS011;40714;51.378;-2.348;2023-09-19T04:44:50;1.75;;;0.43;;
54813;SDS011;40714;51.378;-2.348;2023-09-19T04:47:19;0.65;;;0.35;;
54813;SDS011;40714;51.378;-2.348;2023-09-19T04:49:47;1.40;;;0.10;;
54813;SDS011;40714;51.378;-2.348;2023-09-19T04:52:13;1.95;;;0.20;;
54813;SDS011;40714;51.378;-2.348;2023-09-19T04:54:40;1.35;;;0.20;;
54813;SDS011;40714;51.378;-2.348;2023-09-19T04:57:06;2.85;;;0.30;;
54813;SDS011;40714;51.378;-2.348;2023-09-19T04:59:32;0.55;;;0.20;;
54813;SDS011;40714;51.378;-2.348;2023-09-19T05:01:58;0.77;;;0.20;;
54813;SDS011;40714;51.378;-2.348;2023-09-19T05:04:24;0.38;;;0.10;;
54813;SDS011;40714;51.378;-2.348;2023-09-19T05:06:50;1.02;;;0.20;;
54813;SDS011;40714;51.378;-2.348;2023-09-19T05:09:17;0.43;;;0.15;;
54813;SDS011;40714;51.378;-2.348;2023-09-19T05:11:45;0.40;;;0.20;;
54813;SDS011;40714;51.378;-2.348;2023-09-19T05:14:11;1.75;;;0.35;;
54813;SDS011;40714;51.378;-2.348;2023-09-19T05:16:37;1.33;;;0.30;;
54813;SDS011;40714;51.378;-2.348;2023-09-19T05:19:03;0.55;;;0.32;;
54813;SDS011;40714;51.378;-2.348;2023-09-19T05:21:30;0.60;;;0.20;;
54813;SDS011;40714;51.378;-2.348;2023-09-19T05:23:56;1.13;;;0.75;;
54813;SDS011;40714;51.378;-2.348;2023-09-19T05:26:22;1.33;;;0.40;;
54813;SDS011;40714;51.378;-2.348;2023-09-19T05:28:48;1.75;;;0.45;;
54813;SDS011;40714;51.378;-2.348;2023-09-19T05:31:14;0.95;;;0.30;;
54813;SDS011;40714;51.378;-2.348;2023-09-19T05:33:41;1.70;;;0.22;;
54813;SDS011;40714;51.378;-2.348;2023-09-19T05:36:07;1.50;;;0.20;;
54813;SDS011;40714;51.378;-2.348;2023-09-19T05:41:05;0.75;;;0.20;;
54813;SDS011;40714;51.378;-2.348;2023-09-19T05:43:33;1.25;;;0.30;;
54813;SDS011;40714;51.378;-2.348;2023-09-19T05:45:59;1.40;;;0.28;;
54813;SDS011;40714;51.378;-2.348;2023-09-19T05:48:26;2.58;;;0.28;;
54813;SDS011;40714;51.378;-2.348;2023-09-19T05:50:52;1.40;;;0.30;;
54813;SDS011;40714;51.378;-2.348;2023-09-19T05:53:18;1.70;;;0.40;;
54813;SDS011;40714;51.378;-2.348;2023-09-19T05:55:44;0.52;;;0.20;;
54813;SDS011;40714;51.378;-2.348;2023-09-19T05:58:10;1.42;;;0.50;;
54813;SDS011;40714;51.378;-2.348;2023-09-19T06:00:39;1.77;;;0.20;;
54813;SDS011;40714;51.378;-2.348;2023-09-19T06:03:07;0.70;;;0.30;;
54813;SDS011;40714;51.378;-2.348;2023-09-19T06:05:34;2.60;;;0.43;;
54813;SDS011;40714;51.378;-2.348;2023-09-19T06:08:00;1.52;;;0.50;;
54813;SDS011;40714;51.378;-2.348;2023-09-19T06:10:33;3.33;;;0.40;;
54813;SDS011;40714;51.378;-2.348;2023-09-19T06:13:00;1.08;;;0.40;;
54813;SDS011;40714;51.378;-2.348;2023-09-19T06:15:29;2.00;;;0.43;;
54813;SDS011;40714;51.378;-2.348;2023-09-19T06:17:57;2.20;;;0.83;;
54813;SDS011;40714;51.378;-2.348;2023-09-19T06:20:25;1.88;;;0.70;;
54813;SDS011;40714;51.378;-2.348;2023-09-19T06:22:52;2.75;;;0.50;;
54813;SDS011;40714;51.378;-2.348;2023-09-19T06:25:18;2.65;;;0.50;;
54813;SDS011;40714;51.378;-2.348;2023-09-19T06:27:48;1.15;;;0.73;;
54813;SDS011;40714;51.378;-2.348;2023-09-19T06:30:17;3.33;;;0.63;;
54813;SDS011;40714;51.378;-2.348;2023-09-19T06:32:43;3.05;;;1.23;;
54813;SDS011;40714;51.378;-2.348;2023-09-19T06:35:10;0.75;;;0.40;;
54813;SDS011;40714;51.378;-2.348;2023-09-19T06:37:37;2.63;;;0.65;;
54813;SDS011;40714;51.378;-2.348;2023-09-19T06:42:31;3.13;;;0.40;;
54813;SDS011;40714;51.378;-2.348;2023-09-19T06:44:58;2.60;;;0.68;;
54813;SDS011;40714;51.378;-2.348;2023-09-19T06:47:24;2.78;;;0.60;;
54813;SDS011;40714;51.378;-2.348;2023-09-19T06:49:51;0.75;;;0.40;;
54813;SDS011;40714;51.378;-2.348;2023-09-19T06:52:17;1.90;;;0.38;;
54813;SDS011;40714;51.378;-2.348;2023-09-19T06:54:44;2.25;;;0.70;;
54813;SDS011;40714;51.378;-2.348;2023-09-19T06:57:10;1.13;;;0.63;;
54813;SDS011;40714;51.378;-2.348;2023-09-19T06:59:36;2.58;;;0.70;;
54813;SDS011;40714;51.378;-2.348;2023-09-19T07:02:03;5.50;;;0.82;;
54813;SDS011;40714;51.378;-2.348;2023-09-19T07:04:31;1.92;;;0.70;;
54813;SDS011;40714;51.378;-2.348;2023-09-19T07:06:57;1.73;;;0.88;;
54813;SDS011;40714;51.378;-2.348;2023-09-19T07:09:23;4.82;;;0.90;;
54813;SDS011;40714;51.378;-2.348;2023-09-19T07:11:52;1.92;;;0.68;;
54813;SDS011;40714;51.378;-2.348;2023-09-19T07:14:18;0.68;;;0.50;;
54813;SDS011;40714;51.378;-2.348;2023-09-19T07:16:44;1.70;;;0.73;;
54813;SDS011;40714;51.378;-2.348;2023-09-19T07:19:12;1.27;;;0.73;;
54813;SDS011;40714;51.378;-2.348;2023-09-19T07:21:40;2.10;;;0.88;;
54813;SDS011;40714;51.378;-2.348;2023-09-19T07:24:07;2.38;;;0.80;;
54813;SDS011;40714;51.378;-2.348;2023-09-19T07:26:33;3.42;;;1.48;;
54813;SDS011;40714;51.378;-2.348;2023-09-19T07:28:59;3.30;;;0.90;;
54813;SDS011;40714;51.378;-2.348;2023-09-19T07:31:28;4.30;;;1.63;;
54813;SDS011;40714;51.378;-2.348;2023-09-19T07:33:56;2.17;;;0.98;;
54813;SDS011;40714;51.378;-2.348;2023-09-19T07:36:22;3.25;;;0.77;;
54813;SDS011;40714;51.378;-2.348;2023-09-19T07:38:49;5.03;;;0.88;;
54813;SDS011;40714;51.378;-2.348;2023-09-19T07:41:15;5.13;;;1.17;;
54813;SDS011;40714;51.378;-2.348;2023-09-19T07:43:41;5.40;;;1.88;;
54813;SDS011;40714;51.378;-2.348;2023-09-19T07:46:08;3.88;;;0.95;;
54813;SDS011;40714;51.378;-2.348;2023-09-19T07:48:35;4.78;;;1.15;;
54813;SDS011;40714;51.378;-2.348;2023-09-19T07:51:03;5.30;;;0.88;;
54813;SDS011;40714;51.378;-2.348;2023-09-19T07:53:29;3.53;;;1.17;;
54813;SDS011;40714;51.378;-2.348;2023-09-19T07:56:05;4.65;;;1.23;;
54813;SDS011;40714;51.378;-2.348;2023-09-19T07:58:31;5.72;;;1.15;;
54813;SDS011;40714;51.378;-2.348;2023-09-19T08:01:04;2.17;;;1.10;;
54813;SDS011;40714;51.378;-2.348;2023-09-19T08:03:31;4.05;;;1.08;;
54813;SDS011;40714;51.378;-2.348;2023-09-19T08:05:57;4.85;;;1.13;;
54813;SDS011;40714;51.378;-2.348;2023-09-19T08:08:24;5.40;;;1.67;;
54813;SDS011;40714;51.378;-2.348;2023-09-19T08:10:54;3.45;;;1.42;;
54813;SDS011;40714;51.378;-2.348;2023-09-19T08:13:21;5.82;;;1.65;;
54813;SDS011;40714;51.378;-2.348;2023-09-19T08:15:47;5.03;;;1.35;;
54813;SDS011;40714;51.378;-2.348;2023-09-19T08:18:14;4.65;;;1.27;;
54813;SDS011;40714;51.378;-2.348;2023-09-19T08:20:40;4.55;;;1.52;;
54813;SDS011;40714;51.378;-2.348;2023-09-19T08:23:11;6.50;;;1.92;;
54813;SDS011;40714;51.378;-2.348;2023-09-19T08:25:37;4.80;;;1.45;;
54813;SDS011;40714;51.378;-2.348;2023-09-19T08:28:04;6.55;;;1.50;;
54813;SDS011;40714;51.378;-2.348;2023-09-19T08:30:33;2.45;;;1.38;;
54813;SDS011;40714;51.378;-2.348;2023-09-19T08:33:00;4.78;;;1.40;;
54813;SDS011;40714;51.378;-2.348;2023-09-19T08:35:29;4.90;;;1.20;;
54813;SDS011;40714;51.378;-2.348;2023-09-19T08:37:55;5.75;;;1.65;;
54813;SDS011;40714;51.378;-2.348;2023-09-19T08:40:23;5.18;;;1.38;;
54813;SDS011;40714;51.378;-2.348;2023-09-19T08:45:15;5.88;;;1.50;;
54813;SDS011;40714;51.378;-2.348;2023-09-19T08:47:45;4.18;;;1.08;;
54813;SDS011;40714;51.378;-2.348;2023-09-19T08:50:19;2.70;;;1.10;;
54813;SDS011;40714;51.378;-2.348;2023-09-19T08:52:45;5.30;;;1.33;;
54813;SDS011;40714;51.378;-2.348;2023-09-19T08:55:13;6.40;;;1.48;;
54813;SDS011;40714;51.378;-2.348;2023-09-19T08:57:45;3.67;;;1.17;;
54813;SDS011;40714;51.378;-2.348;2023-09-19T09:00:14;3.20;;;1.57;;
54813;SDS011;40714;51.378;-2.348;2023-09-19T09:02:42;4.38;;;1.08;;
54813;SDS011;40714;51.378;-2.348;2023-09-19T09:05:09;3.85;;;1.33;;
54813;SDS011;40714;51.378;-2.348;2023-09-19T09:07:42;2.40;;;1.10;;
54813;SDS011;40714;51.378;-2.348;2023-09-19T09:10:09;1.17;;;0.73;;
54813;SDS011;40714;51.378;-2.348;2023-09-19T09:12:35;4.65;;;1.17;;
54813;SDS011;40714;51.378;-2.348;2023-09-19T09:15:02;3.50;;;1.52;;
54813;SDS011;40714;51.378;-2.348;2023-09-19T09:17:29;3.78;;;1.48;;
54813;SDS011;40714;51.378;-2.348;2023-09-19T09:19:55;3.72;;;1.25;;
54813;SDS011;40714;51.378;-2.348;2023-09-19T09:22:22;3.15;;;1.30;;
54813;SDS011;40714;51.378;-2.348;2023-09-19T09:24:55;4.38;;;1.30;;
54813;SDS011;40714;51.378;-2.348;2023-09-19T09:27:29;2.92;;;0.88;;
54813;SDS011;40714;51.378;-2.348;2023-09-19T09:29:55;4.13;;;1.30;;
54813;SDS011;40714;51.378;-2.348;2023-09-19T09:34:48;5.25;;;1.58;;
54813;SDS011;40714;51.378;-2.348;2023-09-19T09:37:15;3.83;;;1.10;;
54813;SDS011;40714;51.378;-2.348;2023-09-19T09:39:48;3.35;;;0.95;;
54813;SDS011;40714;51.378;-2.348;2023-09-19T09:42:37;4.28;;;1.55;;
54813;SDS011;40714;51.378;-2.348;2023-09-19T09:45:12;4.07;;;1.30;;
54813;SDS011;40714;51.378;-2.348;2023-09-19T09:47:47;3.42;;;1.40;;
54813;SDS011;40714;51.378;-2.348;2023-09-19T09:50:27;3.92;;;1.35;;
54813;SDS011;40714;51.378;-2.348;2023-09-19T09:53:28;2.17;;;1.00;;
54813;SDS011;40714;51.378;-2.348;2023-09-19T09:58:23;2.55;;;1.10;;
54813;SDS011;40714;51.378;-2.348;2023-09-19T10:00:54;2.75;;;0.88;;
54813;SDS011;40714;51.378;-2.348;2023-09-19T10:03:35;4.82;;;1.02;;
54813;SDS011;40714;51.378;-2.348;2023-09-19T10:06:08;1.67;;;0.70;;
54813;SDS011;40714;51.378;-2.348;2023-09-19T10:11:41;4.20;;;1.00;;
54813;SDS011;40714;51.378;-2.348;2023-09-19T10:14:08;5.00;;;1.02;;
54813;SDS011;40714;51.378;-2.348;2023-09-19T10:16:37;2.78;;;0.60;;
54813;SDS011;40714;51.378;-2.348;2023-09-19T10:19:06;3.58;;;0.73;;
54813;SDS011;40714;51.378;-2.348;2023-09-19T10:21:34;4.45;;;1.42;;
54813;SDS011;40714;51.378;-2.348;2023-09-19T10:24:01;3.63;;;1.08;;
54813;SDS011;40714;51.378;-2.348;2023-09-19T10:26:32;2.30;;;0.90;;
54813;SDS011;40714;51.378;-2.348;2023-09-19T10:29:01;2.65;;;0.82;;
54813;SDS011;40714;51.378;-2.348;2023-09-19T10:31:28;2.63;;;1.00;;
54813;SDS011;40714;51.378;-2.348;2023-09-19T10:33:55;1.70;;;0.70;;
54813;SDS011;40714;51.378;-2.348;2023-09-19T10:36:23;4.80;;;1.10;;
54813;SDS011;40714;51.378;-2.348;2023-09-19T10:38:52;2.63;;;0.75;;
54813;SDS011;40714;51.378;-2.348;2023-09-19T10:41:21;1.77;;;0.73;;
54813;SDS011;40714;51.378;-2.348;2023-09-19T10:43:48;1.45;;;0.93;;
54813;SDS011;40714;51.378;-2.348;2023-09-19T10:46:14;3.40;;;0.70;;
54813;SDS011;40714;51.378;-2.348;2023-09-19T10:48:40;2.45;;;0.70;;
54813;SDS011;40714;51.378;-2.348;2023-09-19T10:51:16;3.25;;;1.15;;
54813;SDS011;40714;51.378;-2.348;2023-09-19T10:56:09;2.05;;;0.60;;
54813;SDS011;40714;51.378;-2.348;2023-09-19T10:58:42;1.20;;;0.80;;
54813;SDS011;40714;51.378;-2.348;2023-09-19T11:01:10;1.13;;;0.68;;
54813;SDS011;40714;51.378;-2.348;2023-09-19T11:03:40;2.20;;;0.80;;
54813;SDS011;40714;51.378;-2.348;2023-09-19T11:06:13;3.75;;;0.82;;
54813;SDS011;40714;51.378;-2.348;2023-09-19T11:09:00;1.58;;;0.68;;
54813;SDS011;40714;51.378;-2.348;2023-09-19T11:11:47;1.23;;;0.40;;
54813;SDS011;40714;51.378;-2.348;2023-09-19T11:22:19;0.95;;;0.43;;
54813;SDS011;40714;51.378;-2.348;2023-09-19T11:24:47;1.30;;;0.40;;
54813;SDS011;40714;51.378;-2.348;2023-09-19T11:27:15;1.50;;;0.52;;
54813;SDS011;40714;51.378;-2.348;2023-09-19T11:29:43;0.70;;;0.28;;
54813;SDS011;40714;51.378;-2.348;2023-09-19T11:32:10;2.30;;;0.47;;
54813;SDS011;40714;51.378;-2.348;2023-09-19T11:37:02;3.60;;;0.65;;
54813;SDS011;40714;51.378;-2.348;2023-09-19T11:39:29;0.85;;;0.30;;
54813;SDS011;40714;51.378;-2.348;2023-09-19T11:41:55;0.40;;;0.20;;
54813;SDS011;40714;51.378;-2.348;2023-09-19T11:44:31;1.42;;;0.50;;
54813;SDS011;40714;51.378;-2.348;2023-09-19T11:47:03;0.50;;;0.25;;
54813;SDS011;40714;51.378;-2.348;2023-09-19T11:49:31;0.73;;;0.40;;
54813;SDS011;40714;51.378;-2.348;2023-09-19T11:51:59;0.30;;;0.20;;
54813;SDS011;40714;51.378;-2.348;2023-09-19T11:54:33;1.02;;;0.30;;
54813;SDS011;40714;51.378;-2.348;2023-09-19T11:57:01;1.77;;;0.30;;
54813;SDS011;40714;51.378;-2.348;2023-09-19T11:59:28;0.93;;;0.45;;
54813;SDS011;40714;51.378;-2.348;2023-09-19T12:01:55;0.95;;;0.32;;
54813;SDS011;40714;51.378;-2.348;2023-09-19T12:07:06;0.43;;;0.22;;
54813;SDS011;40714;51.378;-2.348;2023-09-19T12:09:37;1.35;;;0.28;;
54813;SDS011;40714;51.378;-2.348;2023-09-19T12:12:03;1.17;;;0.30;;
54813;SDS011;40714;51.378;-2.348;2023-09-19T12:14:29;0.57;;;0.30;;
54813;SDS011;40714;51.378;-2.348;2023-09-19T12:16:56;0.35;;;0.10;;
54813;SDS011;40714;51.378;-2.348;2023-09-19T12:19:25;1.17;;;0.30;;
54813;SDS011;40714;51.378;-2.348;2023-09-19T12:21:58;0.22;;;0.10;;
54813;SDS011;40714;51.378;-2.348;2023-09-19T12:24:29;0.60;;;0.22;;
54813;SDS011;40714;51.378;-2.348;2023-09-19T12:26:59;0.77;;;0.20;;
54813;SDS011;40714;51.378;-2.348;2023-09-19T12:29:26;0.70;;;0.20;;
54813;SDS011;40714;51.378;-2.348;2023-09-19T12:31:55;0.70;;;0.30;;
54813;SDS011;40714;51.378;-2.348;2023-09-19T12:34:24;0.20;;;0.20;;
54813;SDS011;40714;51.378;-2.348;2023-09-19T12:37:12;0.47;;;0.30;;
54813;SDS011;40714;51.378;-2.348;2023-09-19T12:39:52;0.50;;;0.28;;
54813;SDS011;40714;51.378;-2.348;2023-09-19T12:42:23;1.00;;;0.22;;
54813;SDS011;40714;51.378;-2.348;2023-09-19T12:44:53;0.30;;;0.30;;
54813;SDS011;40714;51.378;-2.348;2023-09-19T12:47:25;0.55;;;0.40;;
54813;SDS011;40714;51.378;-2.348;2023-09-19T12:50:11;1.17;;;0.50;;
54813;SDS011;40714;51.378;-2.348;2023-09-19T12:52:47;1.23;;;0.22;;
54813;SDS011;40714;51.378;-2.348;2023-09-19T12:55:27;1.00;;;0.20;;
54813;SDS011;40714;51.378;-2.348;2023-09-19T13:00:30;0.82;;;0.30;;
54813;SDS011;40714;51.378;-2.348;2023-09-19T13:03:16;0.10;;;0.10;;
54813;SDS011;40714;51.378;-2.348;2023-09-19T13:05:48;0.60;;;0.30;;
54813;SDS011;40714;51.378;-2.348;2023-09-19T13:08:20;0.47;;;0.28;;
54813;SDS011;40714;51.378;-2.348;2023-09-19T13:16:19;1.60;;;0.22;;
54813;SDS011;40714;51.378;-2.348;2023-09-19T13:18:48;2.83;;;0.30;;
54813;SDS011;40714;51.378;-2.348;2023-09-19T13:21:31;1.13;;;0.20;;
54813;SDS011;40714;51.378;-2.348;2023-09-19T13:24:21;0.73;;;0.45;;
54813;SDS011;40714;51.378;-2.348;2023-09-19T13:26:48;0.63;;;0.30;;
54813;SDS011;40714;51.378;-2.348;2023-09-19T13:29:14;0.80;;;0.40;;
54813;SDS011;40714;51.378;-2.348;2023-09-19T13:31:45;0.70;;;0.30;;
54813;SDS011;40714;51.378;-2.348;2023-09-19T13:34:11;0.88;;;0.30;;
54813;SDS011;40714;51.378;-2.348;2023-09-19T13:36:39;1.00;;;0.43;;
54813;SDS011;40714;51.378;-2.348;2023-09-19T13:39:05;0.95;;;0.30;;
54813;SDS011;40714;51.378;-2.348;2023-09-19T13:41:33;0.43;;;0.22;;
54813;SDS011;40714;51.378;-2.348;2023-09-19T13:44:01;0.88;;;0.50;;
54813;SDS011;40714;51.378;-2.348;2023-09-19T13:46:27;0.70;;;0.30;;
54813;SDS011;40714;51.378;-2.348;2023-09-19T13:48:56;1.70;;;0.60;;
54813;SDS011;40714;51.378;-2.348;2023-09-19T13:51:25;0.85;;;0.30;;
54813;SDS011;40714;51.378;-2.348;2023-09-19T13:53:51;0.65;;;0.47;;
54813;SDS011;40714;51.378;-2.348;2023-09-19T13:56:17;0.77;;;0.30;;
54813;SDS011;40714;51.378;-2.348;2023-09-19T13:58:43;1.70;;;0.40;;
54813;SDS011;40714;51.378;-2.348;2023-09-19T14:01:09;2.47;;;0.50;;
54813;SDS011;40714;51.378;-2.348;2023-09-19T14:03:38;2.43;;;0.60;;
54813;SDS011;40714;51.378;-2.348;2023-09-19T14:06:04;1.23;;;0.40;;
54813;SDS011;40714;51.378;-2.348;2023-09-19T14:08:30;0.65;;;0.35;;
54813;SDS011;40714;51.378;-2.348;2023-09-19T14:10:58;3.17;;;0.60;;
54813;SDS011;40714;51.378;-2.348;2023-09-19T14:13:24;1.90;;;0.52;;
54813;SDS011;40714;51.378;-2.348;2023-09-19T14:15:50;4.40;;;0.95;;
54813;SDS011;40714;51.378;-2.348;2023-09-19T14:18:16;2.28;;;0.70;;
54813;SDS011;40714;51.378;-2.348;2023-09-19T14:20:43;2.83;;;0.60;;
54813;SDS011;40714;51.378;-2.348;2023-09-19T14:23:09;8.30;;;1.00;;
54813;SDS011;40714;51.378;-2.348;2023-09-19T14:25:35;1.50;;;0.60;;
54813;SDS011;40714;51.378;-2.348;2023-09-19T14:28:03;5.38;;;1.13;;
54813;SDS011;40714;51.378;-2.348;2023-09-19T14:30:29;1.40;;;0.88;;
54813;SDS011;40714;51.378;-2.348;2023-09-19T14:32:55;2.05;;;0.65;;
54813;SDS011;40714;51.378;-2.348;2023-09-19T14:35:22;2.90;;;0.40;;
54813;SDS011;40714;51.378;-2.348;2023-09-19T14:37:48;3.75;;;0.60;;
54813;SDS011;40714;51.378;-2.348;2023-09-19T14:40:14;3.15;;;0.55;;
54813;SDS011;40714;51.378;-2.348;2023-09-19T14:42:42;3.25;;;0.60;;
54813;SDS011;40714;51.378;-2.348;2023-09-19T14:45:09;1.15;;;0.60;;
54813;SDS011;40714;51.378;-2.348;2023-09-19T14:47:36;3.55;;;1.08;;
54813;SDS011;40714;51.378;-2.348;2023-09-19T14:50:03;1.65;;;0.40;;
54813;SDS011;40714;51.378;-2.348;2023-09-19T14:52:31;2.88;;;0.55;;
54813;SDS011;40714;51.378;-2.348;2023-09-19T14:54:58;0.93;;;0.40;;
54813;SDS011;40714;51.378;-2.348;2023-09-19T14:57:24;1.58;;;0.52;;
54813;SDS011;40714;51.378;-2.348;2023-09-19T14:59:51;1.70;;;0.45;;
54813;SDS011;40714;51.378;-2.348;2023-09-19T15:02:17;1.48;;;0.35;;
54813;SDS011;40714;51.378;-2.348;2023-09-19T15:04:44;1.30;;;0.52;;
54813;SDS011;40714;51.378;-2.348;2023-09-19T15:07:12;0.63;;;0.30;;
54813;SDS011;40714;51.378;-2.348;2023-09-19T15:09:40;1.13;;;0.70;;
54813;SDS011;40714;51.378;-2.348;2023-09-19T15:12:06;4.60;;;0.77;;
54813;SDS011;40714;51.378;-2.348;2023-09-19T15:14:32;2.75;;;0.35;;
54813;SDS011;40714;51.378;-2.348;2023-09-19T15:16:58;2.30;;;0.50;;
54813;SDS011;40714;51.378;-2.348;2023-09-19T15:19:24;1.58;;;0.28;;
54813;SDS011;40714;51.378;-2.348;2023-09-19T15:21:50;1.15;;;0.40;;
54813;SDS011;40714;51.378;-2.348;2023-09-19T15:24:16;1.67;;;0.38;;
54813;SDS011;40714;51.378;-2.348;2023-09-19T15:26:43;0.90;;;0.30;;
54813;SDS011;40714;51.378;-2.348;2023-09-19T15:29:09;1.65;;;0.50;;
54813;SDS011;40714;51.378;-2.348;2023-09-19T15:31:36;1.13;;;0.38;;
54813;SDS011;40714;51.378;-2.348;2023-09-19T15:34:05;0.68;;;0.40;;
54813;SDS011;40714;51.378;-2.348;2023-09-19T15:36:32;0.38;;;0.20;;